createdAt,value
2017-05-20T00:01:27.570Z,87.20
2017-05-20T00:03:56.534Z,86.90
2017-05-20T00:06:25.477Z,86.90
2017-05-20T00:08:54.495Z,86.20
2017-05-20T00:11:23.469Z,85.80
2017-05-20T00:13:52.403Z,86.40
2017-05-20T00:16:21.357Z,85.80
2017-05-20T00:18:50.465Z,85.70
2017-05-20T00:21:19.419Z,85.90
2017-05-20T00:23:48.349Z,85.60
2017-05-20T00:26:17.302Z,85.70
2017-05-20T00:28:46.250Z,85.70
2017-05-20T00:31:15.179Z,85.70
2017-05-20T00:33:44.149Z,85.50
2017-05-20T00:36:13.077Z,86.50
2017-05-20T00:38:42.029Z,86.40
2017-05-20T00:41:11.010Z,86.50
2017-05-20T00:43:39.930Z,87.00
2017-05-20T00:46:08.882Z,88.10
2017-05-20T00:48:37.837Z,86.50
2017-05-20T00:51:06.789Z,86.30
2017-05-20T00:53:35.733Z,85.70
2017-05-20T00:56:04.701Z,86.30
2017-05-20T00:58:33.626Z,86.50
2017-05-20T01:01:02.562Z,86.60
2017-05-20T01:03:31.533Z,86.30
2017-05-20T01:06:00.480Z,86.50
2017-05-20T01:08:29.425Z,87.00
2017-05-20T01:10:58.379Z,86.70
2017-05-20T01:13:27.300Z,86.00
2017-05-20T01:15:56.247Z,85.80
2017-05-20T01:18:25.231Z,86.00
2017-05-20T01:20:54.162Z,85.50
2017-05-20T01:23:23.110Z,86.10
2017-05-20T01:25:52.082Z,85.40
2017-05-20T01:28:21.027Z,85.60
2017-05-20T01:30:49.960Z,84.50
2017-05-20T01:33:18.910Z,85.10
2017-05-20T01:35:47.831Z,85.80
2017-05-20T01:38:16.759Z,86.20
2017-05-20T01:40:45.741Z,85.50
2017-05-20T01:43:14.684Z,85.50
2017-05-20T01:45:43.606Z,86.20
2017-05-20T01:48:12.569Z,86.20
2017-05-20T01:50:41.513Z,86.20
2017-05-20T01:53:10.460Z,85.30
2017-05-20T01:55:39.422Z,85.50
2017-05-20T01:58:08.365Z,85.50
2017-05-20T02:00:37.297Z,85.60
2017-05-20T02:03:06.245Z,85.60
2017-05-20T02:05:35.189Z,86.10
2017-05-20T02:08:04.113Z,85.60
2017-05-20T02:10:33.092Z,86.30
2017-05-20T02:13:02.039Z,85.40
2017-05-20T02:15:30.966Z,85.50
2017-05-20T02:17:59.933Z,85.90
2017-05-20T02:20:28.863Z,85.60
2017-05-20T02:22:57.803Z,85.00
2017-05-20T02:25:26.763Z,85.20
2017-05-20T02:27:55.236Z,85.20
2017-05-20T02:30:23.688Z,85.20
2017-05-20T02:32:52.189Z,85.70
2017-05-20T02:35:20.660Z,85.90
2017-05-20T02:37:49.136Z,85.30
2017-05-20T02:40:17.625Z,85.20
2017-05-20T02:42:46.546Z,84.80
2017-05-20T02:45:15.470Z,85.50
2017-05-20T02:47:44.421Z,85.60
2017-05-20T02:50:13.346Z,86.10
2017-05-20T02:52:42.358Z,86.00
2017-05-20T02:55:11.305Z,85.40
2017-05-20T02:57:40.258Z,85.50
2017-05-20T03:00:09.185Z,86.00
2017-05-20T03:02:38.138Z,84.70
2017-05-20T03:05:07.089Z,85.00
2017-05-20T03:07:36.011Z,84.30
2017-05-20T03:10:04.495Z,85.40
2017-05-20T03:12:32.951Z,85.40
2017-05-20T03:15:01.425Z,85.70
2017-05-20T03:17:29.955Z,86.20
2017-05-20T03:19:58.425Z,85.60
2017-05-20T03:22:26.889Z,86.30
2017-05-20T03:24:55.820Z,86.30
2017-05-20T03:27:24.295Z,85.70
2017-05-20T03:29:52.768Z,85.70
2017-05-20T03:32:21.273Z,85.50
2017-05-20T03:34:49.726Z,85.80
2017-05-20T03:37:18.199Z,85.90
2017-05-20T03:39:46.684Z,85.50
2017-05-20T03:42:15.142Z,84.60
2017-05-20T03:44:43.612Z,84.70
2017-05-20T03:47:12.097Z,85.00
2017-05-20T03:49:40.544Z,85.50
2017-05-20T03:52:08.989Z,84.60
2017-05-20T03:54:37.474Z,84.80
2017-05-20T03:57:05.930Z,84.60
2017-05-20T03:59:34.397Z,85.60
2017-05-20T04:02:02.897Z,85.60
2017-05-20T04:04:31.352Z,85.60
2017-05-20T04:06:59.807Z,85.10
2017-05-20T04:09:28.309Z,84.80
2017-05-20T04:11:56.777Z,85.20
2017-05-20T04:14:25.230Z,85.20
2017-05-20T04:16:53.737Z,84.80
2017-05-20T04:19:22.185Z,85.30
2017-05-20T04:21:50.656Z,85.50
2017-05-20T04:24:19.620Z,85.10
2017-05-20T04:26:48.079Z,85.20
2017-05-20T04:29:17.014Z,84.80
2017-05-20T04:31:45.995Z,84.80
2017-05-20T04:34:14.503Z,84.70
2017-05-20T04:36:43.445Z,84.70
2017-05-20T04:39:12.396Z,85.30
2017-05-20T04:41:41.348Z,84.60
2017-05-20T04:44:09.804Z,84.50
2017-05-20T04:46:38.306Z,84.50
2017-05-20T04:49:06.799Z,84.50
2017-05-20T04:51:35.258Z,85.20
2017-05-20T04:54:04.236Z,84.50
2017-05-20T04:56:32.693Z,84.60
2017-05-20T04:59:01.641Z,84.70
2017-05-20T05:01:30.595Z,84.70
2017-05-20T05:03:59.522Z,84.70
2017-05-20T05:06:28.470Z,84.30
2017-05-20T05:08:57.441Z,83.90
2017-05-20T05:11:26.377Z,83.40
2017-05-20T05:13:55.302Z,83.00
2017-05-20T05:16:24.258Z,82.80
2017-05-20T05:18:53.201Z,82.20
2017-05-20T05:21:22.145Z,82.90
2017-05-20T05:23:51.102Z,82.70
2017-05-20T05:26:20.048Z,82.20
2017-05-20T05:28:48.988Z,82.60
2017-05-20T05:31:17.956Z,82.40
2017-05-20T05:33:46.907Z,83.00
2017-05-20T05:36:15.835Z,82.40
2017-05-20T05:38:44.808Z,82.50
2017-05-20T05:41:13.739Z,82.30
2017-05-20T05:43:42.670Z,82.10
2017-05-20T05:46:11.622Z,82.50
2017-05-20T05:48:40.571Z,82.20
2017-05-20T05:51:09.494Z,81.80
2017-05-20T05:53:38.475Z,81.80
2017-05-20T05:56:07.424Z,82.00
2017-05-20T05:58:36.368Z,82.50
2017-05-20T06:01:05.345Z,80.10
2017-05-20T06:03:34.304Z,80.30
2017-05-20T06:06:03.252Z,80.40
2017-05-20T06:08:32.227Z,79.90
2017-05-20T06:11:01.150Z,78.70
2017-05-20T06:13:30.097Z,79.10
2017-05-20T06:15:59.059Z,79.50
2017-05-20T06:18:28.009Z,79.30
2017-05-20T06:20:57.380Z,77.40
2017-05-20T06:23:26.346Z,77.40
2017-05-20T06:25:55.269Z,77.10
2017-05-20T06:28:24.193Z,76.80
2017-05-20T06:30:53.148Z,74.80
2017-05-20T06:33:22.093Z,74.20
2017-05-20T06:35:51.035Z,73.20
2017-05-20T06:38:20.012Z,74.10
2017-05-20T06:40:48.961Z,73.60
2017-05-20T06:45:47.053Z,71.40
2017-05-20T06:48:15.513Z,71.30
2017-05-20T06:50:43.996Z,70.80
2017-05-20T06:53:12.505Z,72.40
2017-05-20T06:55:40.980Z,69.60
2017-05-20T06:58:09.453Z,68.70
2017-05-20T07:00:38.417Z,70.40
2017-05-20T07:03:06.893Z,70.30
2017-05-20T07:05:35.373Z,70.60
2017-05-20T07:08:03.875Z,70.00
2017-05-20T07:10:32.356Z,68.10
2017-05-20T07:13:00.828Z,65.40
2017-05-20T07:15:29.337Z,65.70
2017-05-20T07:17:57.795Z,66.10
2017-05-20T07:20:26.312Z,65.50
2017-05-20T07:22:54.839Z,66.70
2017-05-20T07:25:23.295Z,67.10
2017-05-20T07:27:52.277Z,64.60
2017-05-20T07:30:21.276Z,65.60
2017-05-20T07:32:50.231Z,63.80
2017-05-20T07:35:19.159Z,63.70
2017-05-20T07:37:48.138Z,61.20
2017-05-20T07:40:17.107Z,62.90
2017-05-20T07:42:45.557Z,61.50
2017-05-20T07:45:14.049Z,61.20
2017-05-20T07:47:42.520Z,61.70
2017-05-20T07:50:11.466Z,60.90
2017-05-20T07:52:41.415Z,59.10
2017-05-20T07:55:10.338Z,60.50
2017-05-20T07:57:39.281Z,59.00
2017-05-20T08:00:08.237Z,57.10
2017-05-20T08:02:37.178Z,56.60
2017-05-20T08:05:06.125Z,57.00
2017-05-20T08:07:35.102Z,56.50
2017-05-20T08:10:04.031Z,56.20
2017-05-20T08:12:32.985Z,54.10
2017-05-20T08:15:01.938Z,52.50
2017-05-20T08:17:30.880Z,50.70
2017-05-20T08:19:59.350Z,50.60
2017-05-20T08:22:27.825Z,47.80
2017-05-20T08:24:56.652Z,47.20
2017-05-20T08:27:25.110Z,47.10
2017-05-20T08:29:53.606Z,47.00
2017-05-20T08:32:22.084Z,47.30
2017-05-20T08:34:50.554Z,48.70
2017-05-20T08:37:19.036Z,46.50
2017-05-20T08:39:47.969Z,45.60
2017-05-20T08:42:16.421Z,44.10
2017-05-20T08:44:44.909Z,41.40
2017-05-20T08:47:13.368Z,41.10
2017-05-20T08:49:42.331Z,43.00
2017-05-20T08:52:10.844Z,43.30
2017-05-20T08:54:39.320Z,44.10
2017-05-20T08:57:07.792Z,44.20
2017-05-20T08:59:36.752Z,46.50
2017-05-20T09:02:05.212Z,43.50
2017-05-20T09:04:33.687Z,40.80
2017-05-20T09:07:02.195Z,39.40
2017-05-20T09:09:30.676Z,37.90
2017-05-20T09:11:59.295Z,37.80
2017-05-20T09:14:27.793Z,36.40
2017-05-20T09:16:56.252Z,35.90
2017-05-20T09:19:24.744Z,34.80
2017-05-20T09:21:53.252Z,34.70
2017-05-20T09:24:21.729Z,34.50
2017-05-20T09:26:50.221Z,34.20
2017-05-20T09:29:18.725Z,35.40
2017-05-20T09:31:47.205Z,34.40
2017-05-20T09:34:15.697Z,32.50
2017-05-20T09:36:44.212Z,29.70
2017-05-20T09:39:12.674Z,29.60
2017-05-20T09:41:41.151Z,30.00
2017-05-20T09:44:09.657Z,31.00
2017-05-20T09:46:38.135Z,30.40
2017-05-20T09:49:06.607Z,29.00
2017-05-20T09:51:35.090Z,27.70
2017-05-20T09:54:03.568Z,27.30
2017-05-20T09:56:32.059Z,27.50
2017-05-20T09:59:00.546Z,28.20
2017-05-20T10:01:29.027Z,26.90
2017-05-20T10:03:57.514Z,27.70
2017-05-20T10:06:26.035Z,27.10
2017-05-20T10:08:54.722Z,26.60
2017-05-20T10:11:23.212Z,28.40
2017-05-20T10:13:51.723Z,27.00
2017-05-20T10:16:20.189Z,26.00
2017-05-20T10:18:48.660Z,25.60
2017-05-20T10:21:17.196Z,25.00
2017-05-20T10:23:46.148Z,26.50
2017-05-20T10:26:14.621Z,27.80
2017-05-20T10:28:43.159Z,28.50
2017-05-20T10:31:12.090Z,29.40
2017-05-20T10:33:41.034Z,31.40
2017-05-20T10:36:09.522Z,32.30
2017-05-20T10:38:37.982Z,34.90
2017-05-20T10:41:06.454Z,34.40
2017-05-20T10:43:34.964Z,31.10
2017-05-20T10:46:03.448Z,31.40
2017-05-20T10:48:31.920Z,28.60
2017-05-20T10:51:00.517Z,28.30
2017-05-20T10:53:29.471Z,26.50
2017-05-20T10:55:58.399Z,24.60
2017-05-20T10:58:27.377Z,24.70
2017-05-20T11:00:56.311Z,23.80
2017-05-20T11:03:25.253Z,22.80
2017-05-20T11:05:55.206Z,23.00
2017-05-20T11:08:24.151Z,22.30
2017-05-20T11:10:53.074Z,24.30
2017-05-20T11:13:22.053Z,26.30
2017-05-20T11:15:50.988Z,26.00
2017-05-20T11:18:19.919Z,23.40
2017-05-20T11:20:49.407Z,23.80
2017-05-20T11:23:18.394Z,23.40
2017-05-20T11:25:47.328Z,24.20
2017-05-20T11:28:16.318Z,25.30
2017-05-20T11:30:45.270Z,26.40
2017-05-20T11:33:14.209Z,27.20
2017-05-20T11:35:43.192Z,26.50
2017-05-20T11:38:12.129Z,27.00
2017-05-20T11:40:41.054Z,24.60
2017-05-20T11:43:10.425Z,24.20
2017-05-20T11:45:39.356Z,24.60
2017-05-20T11:48:08.289Z,24.80
2017-05-20T11:50:37.255Z,24.50
2017-05-20T11:53:06.205Z,28.40
2017-05-20T11:55:35.127Z,27.20
2017-05-20T11:58:04.082Z,26.90
2017-05-20T12:00:33.737Z,26.90
2017-05-20T12:03:03.256Z,27.10
2017-05-20T12:05:32.254Z,28.10
2017-05-20T12:08:01.169Z,29.50
2017-05-20T12:10:30.110Z,30.40
2017-05-20T12:12:59.080Z,29.10
2017-05-20T12:15:28.007Z,29.60
2017-05-20T12:17:56.929Z,29.70
2017-05-20T12:20:25.876Z,29.90
2017-05-20T12:22:54.806Z,28.90
2017-05-20T12:25:23.749Z,30.00
2017-05-20T12:27:52.694Z,31.50
2017-05-20T12:30:21.632Z,31.10
2017-05-20T12:32:50.569Z,31.30
2017-05-20T12:35:19.537Z,32.20
2017-05-20T12:37:48.472Z,31.10
2017-05-20T12:40:17.407Z,31.40
2017-05-20T12:42:46.358Z,33.00
2017-05-20T12:45:15.282Z,32.40
2017-05-20T12:47:44.237Z,28.90
2017-05-20T12:50:13.205Z,30.60
2017-05-20T12:52:42.127Z,30.00
2017-05-20T12:55:11.047Z,31.70
2017-05-20T12:57:40.008Z,28.70
2017-05-20T13:00:08.957Z,27.90
2017-05-20T13:02:37.882Z,29.20
2017-05-20T13:05:06.839Z,29.40
2017-05-20T13:07:35.758Z,28.80
2017-05-20T13:10:04.698Z,30.10
2017-05-20T13:12:33.669Z,30.50
2017-05-20T13:15:02.616Z,30.10
2017-05-20T13:17:31.559Z,30.90
2017-05-20T13:20:00.518Z,32.50
2017-05-20T13:22:29.463Z,32.80
2017-05-20T13:24:58.390Z,30.20
2017-05-20T13:27:27.371Z,31.40
2017-05-20T13:29:56.294Z,33.10
2017-05-20T13:32:25.218Z,31.10
2017-05-20T13:34:54.163Z,31.50
2017-05-20T13:37:23.113Z,32.10
2017-05-20T13:39:52.032Z,31.90
2017-05-20T13:42:20.982Z,32.90
2017-05-20T13:44:50.009Z,30.90
2017-05-20T13:47:18.933Z,32.30
2017-05-20T13:49:47.995Z,32.30
2017-05-20T13:52:16.913Z,30.90
2017-05-20T13:54:45.852Z,31.30
2017-05-20T13:57:14.821Z,29.30
2017-05-20T13:59:43.746Z,29.80
2017-05-20T14:02:12.688Z,31.10
2017-05-20T14:04:41.634Z,32.60
2017-05-20T14:07:10.576Z,32.80
2017-05-20T14:09:39.491Z,29.70
2017-05-20T14:12:08.467Z,30.30
2017-05-20T14:14:37.400Z,29.90
2017-05-20T14:17:06.341Z,29.80
2017-05-20T14:19:35.333Z,29.80
2017-05-20T14:22:04.290Z,31.70
2017-05-20T14:24:33.210Z,30.80
2017-05-20T14:27:02.181Z,29.90
2017-05-20T14:29:31.130Z,30.70
2017-05-20T14:32:00.064Z,30.00
2017-05-20T14:34:29.028Z,30.80
2017-05-20T14:36:57.975Z,30.30
2017-05-20T14:39:26.899Z,29.40
2017-05-20T14:41:55.874Z,29.80
2017-05-20T14:44:24.812Z,30.10
2017-05-20T14:46:53.744Z,30.90
2017-05-20T14:49:22.700Z,30.70
2017-05-20T14:51:51.632Z,31.50
2017-05-20T14:54:20.574Z,31.00
2017-05-20T14:56:49.531Z,31.30
2017-05-20T14:59:18.477Z,31.40
2017-05-20T15:01:47.438Z,30.90
2017-05-20T15:04:16.417Z,32.20
2017-05-20T15:06:45.370Z,32.00
2017-05-20T15:09:14.320Z,32.90
2017-05-20T15:11:43.269Z,34.50
2017-05-20T15:14:12.199Z,35.40
2017-05-20T15:16:41.123Z,34.10
2017-05-20T15:19:10.090Z,35.10
2017-05-20T15:21:39.037Z,34.50
2017-05-20T15:24:07.966Z,33.80
2017-05-20T15:26:36.943Z,33.50
2017-05-20T15:29:05.859Z,33.10
2017-05-20T15:31:34.781Z,32.10
2017-05-20T15:34:04.886Z,32.90
2017-05-20T15:36:33.823Z,32.90
2017-05-20T15:39:02.751Z,33.20
2017-05-20T15:41:31.717Z,34.20
2017-05-20T15:44:00.657Z,33.80
2017-05-20T15:46:29.575Z,33.40
2017-05-20T15:48:58.552Z,34.20
2017-05-20T15:51:27.486Z,35.40
2017-05-20T15:53:56.425Z,34.40
2017-05-20T15:56:25.395Z,34.90
2017-05-20T15:58:54.318Z,36.20
2017-05-20T16:01:23.272Z,36.70
2017-05-20T16:03:52.219Z,35.10
2017-05-20T16:06:21.144Z,35.60
2017-05-20T16:08:50.072Z,36.00
2017-05-20T16:11:19.039Z,34.90
2017-05-20T16:13:47.990Z,34.60
2017-05-20T16:16:16.929Z,35.20
2017-05-20T16:18:45.900Z,34.50
2017-05-20T16:21:14.826Z,34.90
2017-05-20T16:23:43.769Z,36.00
2017-05-20T16:26:12.718Z,36.90
2017-05-20T16:28:41.639Z,36.80
2017-05-20T16:31:10.579Z,36.80
2017-05-20T16:33:39.557Z,35.30
2017-05-20T16:36:08.483Z,36.40
2017-05-20T16:38:37.403Z,37.10
2017-05-20T16:41:06.365Z,37.40
2017-05-20T16:43:35.317Z,37.00
2017-05-20T16:46:04.261Z,38.20
2017-05-20T16:48:33.208Z,37.10
2017-05-20T16:51:02.164Z,38.00
2017-05-20T16:53:31.105Z,37.80
2017-05-20T16:56:00.060Z,37.60
2017-05-20T16:58:28.998Z,37.80
2017-05-20T17:00:57.918Z,37.90
2017-05-20T17:03:26.874Z,38.70
2017-05-20T17:05:55.793Z,38.00
2017-05-20T17:08:24.736Z,38.80
2017-05-20T17:10:53.687Z,38.30
2017-05-20T17:13:22.638Z,39.10
2017-05-20T17:15:51.563Z,38.60
2017-05-20T17:18:20.537Z,39.40
2017-05-20T17:20:49.487Z,39.50
2017-05-20T17:23:18.420Z,38.70
2017-05-20T17:25:47.390Z,39.50
2017-05-20T17:28:16.314Z,39.50
2017-05-20T17:33:23.300Z,38.40
2017-05-20T17:35:52.247Z,38.40
2017-05-20T17:38:21.171Z,37.60
2017-05-20T17:40:50.145Z,38.60
2017-05-20T17:43:19.081Z,39.00
2017-05-20T17:45:48.018Z,39.40
2017-05-20T17:48:16.975Z,40.00
2017-05-20T17:50:45.925Z,40.00
2017-05-20T17:53:14.869Z,39.80
2017-05-20T17:55:43.822Z,40.40
2017-05-20T17:58:12.742Z,40.60
2017-05-20T18:00:41.723Z,41.20
2017-05-20T18:03:10.688Z,41.60
2017-05-20T18:05:39.617Z,41.70
2017-05-20T18:08:08.543Z,41.70
2017-05-20T18:10:37.525Z,41.80
2017-05-20T18:13:06.453Z,42.30
2017-05-20T18:15:35.404Z,42.60
2017-05-20T18:18:04.361Z,42.40
2017-05-20T18:20:33.309Z,41.90
2017-05-20T18:23:02.252Z,41.70
2017-05-20T18:25:31.229Z,42.00
2017-05-20T18:28:00.158Z,43.40
2017-05-20T18:30:29.096Z,43.20
2017-05-20T18:32:58.055Z,43.70
2017-05-20T18:35:26.998Z,43.40
2017-05-20T18:37:55.939Z,43.50
2017-05-20T18:40:24.950Z,43.60
2017-05-20T18:42:53.871Z,44.50
2017-05-20T18:45:22.796Z,43.90
2017-05-20T18:47:51.744Z,43.60
2017-05-20T18:50:20.685Z,44.00
2017-05-20T18:52:49.610Z,44.30
2017-05-20T18:55:18.585Z,44.20
2017-05-20T18:57:47.526Z,44.00
2017-05-20T19:00:16.451Z,44.40
2017-05-20T19:02:45.442Z,45.20
2017-05-20T19:05:14.380Z,45.30
2017-05-20T19:07:43.329Z,46.00
2017-05-20T19:10:12.303Z,46.10
2017-05-20T19:12:41.249Z,46.80
2017-05-20T19:15:10.191Z,47.00
2017-05-20T19:17:39.151Z,48.20
2017-05-20T19:20:08.101Z,48.20
2017-05-20T19:22:37.030Z,48.40
2017-05-20T19:25:06.005Z,48.60
2017-05-20T19:27:34.953Z,48.80
2017-05-20T19:30:03.896Z,49.50
2017-05-20T19:32:32.851Z,49.90
2017-05-20T19:35:01.780Z,50.20
2017-05-20T19:37:30.725Z,51.60
2017-05-20T19:39:59.686Z,51.60
2017-05-20T19:42:28.615Z,51.60
2017-05-20T19:44:57.550Z,51.60
2017-05-20T19:47:26.501Z,52.40
2017-05-20T19:49:55.427Z,52.40
2017-05-20T19:52:24.374Z,52.90
2017-05-20T19:54:53.357Z,53.30
2017-05-20T19:57:22.306Z,53.80
2017-05-20T19:59:51.231Z,54.00
2017-05-20T20:02:20.190Z,54.00
2017-05-20T20:04:49.145Z,54.30
2017-05-20T20:07:18.088Z,54.80
2017-05-20T20:09:47.055Z,54.80
2017-05-20T20:12:15.999Z,55.40
2017-05-20T20:14:44.977Z,55.60
2017-05-20T20:17:13.925Z,55.70
2017-05-20T20:19:42.874Z,56.00
2017-05-20T20:22:11.826Z,56.00
2017-05-20T20:24:40.763Z,56.50
2017-05-20T20:27:09.741Z,56.90
2017-05-20T20:29:38.694Z,56.50
2017-05-20T20:32:07.626Z,56.70
2017-05-20T20:34:36.575Z,56.90
2017-05-20T20:37:05.503Z,57.10
2017-05-20T20:39:34.485Z,57.60
2017-05-20T20:42:03.433Z,57.30
2017-05-20T20:44:32.379Z,57.50
2017-05-20T20:47:01.345Z,57.40
2017-05-20T20:49:30.272Z,57.10
2017-05-20T20:51:59.225Z,57.10
2017-05-20T20:54:28.189Z,57.50
2017-05-20T20:56:57.120Z,57.80
2017-05-20T20:59:26.071Z,57.80
2017-05-20T21:01:55.017Z,58.10
2017-05-20T21:04:23.985Z,58.00
2017-05-20T21:06:52.915Z,58.00
2017-05-20T21:09:21.841Z,58.30
2017-05-20T21:11:50.817Z,58.40
2017-05-20T21:14:19.788Z,58.40
2017-05-20T21:16:48.761Z,58.30
2017-05-20T21:19:17.706Z,58.20
2017-05-20T21:21:46.649Z,58.20
2017-05-20T21:24:15.619Z,58.40
2017-05-20T21:26:44.565Z,58.80
2017-05-20T21:29:13.529Z,58.80
2017-05-20T21:31:42.482Z,59.00
2017-05-20T21:34:11.425Z,58.90
2017-05-20T21:36:40.378Z,59.30
2017-05-20T21:39:09.330Z,59.50
2017-05-20T21:41:38.307Z,59.60
2017-05-20T21:44:07.253Z,59.90
2017-05-20T21:46:36.197Z,60.10
2017-05-20T21:49:05.142Z,60.60
2017-05-20T21:51:34.093Z,60.90
2017-05-20T21:54:03.066Z,61.10
2017-05-20T21:56:32.013Z,61.20
2017-05-20T21:59:00.941Z,61.30
2017-05-20T22:01:29.999Z,61.90
2017-05-20T22:03:58.948Z,62.50
2017-05-20T22:06:27.910Z,62.80
2017-05-20T22:08:56.855Z,62.80
2017-05-20T22:11:25.836Z,63.30
2017-05-20T22:13:54.813Z,63.60
2017-05-20T22:16:23.760Z,63.90
2017-05-20T22:18:52.714Z,64.00
2017-05-20T22:21:21.639Z,64.20
2017-05-20T22:23:50.579Z,64.70
2017-05-20T22:26:19.552Z,65.60
2017-05-20T22:28:48.521Z,65.00
2017-05-20T22:31:17.489Z,64.80
2017-05-20T22:33:46.427Z,65.00
2017-05-20T22:36:15.387Z,64.90
2017-05-20T22:38:44.358Z,65.10
2017-05-20T22:41:13.325Z,65.60
2017-05-20T22:43:42.272Z,65.70
2017-05-20T22:46:11.260Z,65.10
2017-05-20T22:48:40.225Z,65.80
2017-05-20T22:51:09.171Z,65.50
2017-05-20T22:53:38.157Z,66.10
2017-05-20T22:56:07.124Z,65.80
2017-05-20T22:58:36.062Z,66.20
2017-05-20T23:01:05.027Z,66.50
2017-05-20T23:03:33.979Z,67.00
2017-05-20T23:06:02.925Z,67.10
2017-05-20T23:08:31.899Z,67.00
2017-05-20T23:11:00.887Z,67.20
2017-05-20T23:13:29.815Z,67.20
2017-05-20T23:15:58.769Z,67.20
2017-05-20T23:18:27.713Z,67.30
2017-05-20T23:20:56.662Z,67.30
2017-05-20T23:23:25.620Z,67.50
2017-05-20T23:25:54.554Z,67.90
2017-05-20T23:28:23.478Z,67.90
2017-05-20T23:30:52.444Z,67.80
2017-05-20T23:33:21.390Z,67.80
2017-05-20T23:35:50.315Z,67.90
2017-05-20T23:38:19.272Z,68.40
2017-05-20T23:40:48.226Z,69.10
2017-05-20T23:43:17.172Z,68.90
2017-05-20T23:45:46.178Z,69.00
2017-05-20T23:48:15.120Z,69.50
2017-05-20T23:50:44.040Z,69.30
2017-05-20T23:53:13.017Z,69.00
2017-05-20T23:55:41.966Z,69.40
2017-05-20T23:58:10.893Z,69.20
